Happy Valentine's Day! 

Flight Track Log - Related Links

Times and Time Zones

All times are in EDT time to prevent confusion due to time zone crossing. See the GJS3710 flight status page for this flight to view local times or setup timezone preferences in your user account.


Time Position Orientation Groundspeed Altitude Reporting Facility
EDT Latitude Longitude Course Direction KTS MPH feet Rate Location/Type
Wed 04:01:06 PM 29.9781 -90.2539 65° Northeast 155 178 800  Level Houston Center
Wed 04:01:55 PM 29.9408 -90.2600 188° South 188 216 2,900 2,504 Climbing Houston Center
Wed 04:03:01 PM 29.9342 -90.1811 96° East 269 310 5,600 2,571 Climbing Houston Center
Wed 04:04:08 PM 29.9542 -90.0892 76° East 262 302 8,600 2,504 Climbing Houston Center
Wed 04:05:08 PM 29.9831 -90.0089 67° East 280 322 10,900 2,250 Climbing Houston Center
Wed 04:06:00 PM 30.0828 -89.5180 65° Northeast  Level FlightAware Approximate
Wed 04:06:16 PM 30.0186 -89.9131 67° East 290 334 13,400  Level Houston Center
Wed 04:07:18 PM 30.0042 -89.8158 100° East 313 360 15,300 1,984 Climbing Houston Center
Wed 04:08:20 PM 29.9444 -89.7492 136° Southeast 305 351 17,500 1,935 Climbing Houston Center
Wed 04:09:22 PM 29.8892 -89.6694 129° Southeast 331 381 19,300 1,742 Climbing Houston Center
Wed 04:10:24 PM 29.8600 -89.5650 108° East 343 395 21,100 1,645 Climbing Houston Center
Wed 04:11:26 PM 29.8436 -89.4292 98° East 356 410 22,700 1,113 Climbing Houston Center
Wed 04:12:28 PM 29.8464 -89.3000 89° East 400 460 23,400 823 Climbing Houston Center
Wed 04:13:30 PM 29.8475 -89.1653 89° East 422 486 24,400 968 Climbing Houston Center
Wed 04:14:32 PM 29.8492 -89.0253 89° East 438 504 25,400 968 Climbing Houston Center
Wed 04:15:34 PM 29.8536 -88.8814 88° East 450 518 26,400 1,258 Climbing Houston Center
Wed 04:16:36 PM 29.8608 -88.7050 87° East 459 528 28,000 1,452 Climbing Houston Center
Wed 04:17:38 PM 29.8844 -88.5644 79° East 454 522 29,400 1,113 Climbing Houston Center
Wed 04:18:40 PM 29.9353 -88.4489 63° Northeast 452 520 30,300 1,016 Climbing Houston Center
Wed 04:19:42 PM 30.0381 -88.3186 48° Northeast 460 529 31,500 1,016 Climbing Houston Center
Wed 04:20:44 PM 30.1453 -88.2422 32° Northeast 457 526 32,400 871 Climbing Houston Center
Wed 04:21:46 PM 30.2511 -88.1625 33° Northeast 456 525 33,300 823 Climbing Houston Center
Wed 04:22:48 PM 30.3628 -88.0928 28° Northeast 463 533 34,100 720 Climbing Houston Center
Wed 04:23:51 PM 30.4869 -88.0864 North 452 520 34,800 576 Climbing Houston Center
Wed 04:24:53 PM 30.6047 -88.1300 342° North 444 511 35,300 435 Climbing Houston Center
Wed 04:25:55 PM 30.7303 -88.1797 341° North 440 506 35,700 484 Climbing Houston Center
Wed 04:26:57 PM 30.8486 -88.2281 341° North 447 514 36,300 532 Climbing Houston Center
Wed 04:27:59 PM 30.9908 -88.2853 341° North 451 519 36,800 484 Climbing Houston Center
Wed 04:29:01 PM 31.1142 -88.3339 341° North 463 533 37,300 532 Climbing Houston Center
Wed 04:30:03 PM 31.2314 -88.3811 341° North 455 524 37,900 339 Climbing Houston Center
Wed 04:31:05 PM 31.3556 -88.4319 341° North 463 533 38,000 48 Climbing Houston Center
Wed 04:32:08 PM 31.4781 -88.4817 341° North 467 537 38,000  Level Houston Center
Wed 04:33:10 PM 31.6039 -88.5322 341° North 476 548 38,000  Level Houston Center
Wed 04:33:57 PM 31.7114 -88.5822 338° Northwest 467 537 38,000  Level Memphis Center
Wed 04:34:57 PM 31.8375 -88.6333 341° North 467 537 38,000  Level Memphis Center
Wed 04:35:57 PM 31.9675 -88.6825 342° North 467 537 38,000  Level Memphis Center
Wed 04:36:57 PM 32.0933 -88.7317 342° North 473 544 38,000  Level Memphis Center
Wed 04:37:57 PM 32.2214 -88.7858 340° North 473 544 38,000  Level Memphis Center
Wed 04:38:57 PM 32.3453 -88.8400 340° North 473 544 38,000  Level Memphis Center
Wed 04:39:57 PM 32.4733 -88.8922 341° North 473 544 38,000  Level Memphis Center
Wed 04:40:57 PM 32.6011 -88.9444 341° North 473 544 38,000  Level Memphis Center
Wed 04:41:57 PM 32.7292 -88.9992 340° North 478 550 38,000  Level Memphis Center
Wed 04:42:57 PM 32.8592 -89.0514 341° North 483 556 38,000  Level Memphis Center
Wed 04:43:57 PM 32.9869 -89.1042 341° North 488 562 38,000  Level Memphis Center
Wed 04:44:57 PM 33.1253 -89.1642 340° North 488 562 38,000  Level Memphis Center
Wed 04:45:57 PM 33.2511 -89.2169 341° North 488 562 38,000  Level Memphis Center
Wed 04:46:57 PM 33.3769 -89.2725 340° North 488 562 38,000  Level Memphis Center
Wed 04:47:57 PM 33.5047 -89.3258 341° North 483 556 38,000  Level Memphis Center
Wed 04:48:57 PM 33.6303 -89.3842 339° North 483 556 38,000  Level Memphis Center
Wed 04:49:57 PM 33.7603 -89.4378 341° North 483 556 38,000  Level Memphis Center
Wed 04:50:57 PM 33.8836 -89.4889 341° North 483 556 38,000  Level Memphis Center
Wed 04:51:57 PM 34.0114 -89.5453 340° North 488 562 38,000  Level Memphis Center
Wed 04:52:57 PM 34.1392 -89.5992 341° North 488 562 38,000  Level Memphis Center
Wed 04:53:57 PM 34.2647 -89.6558 340° North 488 562 38,000  Level Memphis Center
Wed 04:54:57 PM 34.3922 -89.7103 341° North 494 568 38,000  Level Memphis Center
Wed 04:55:57 PM 34.5197 -89.7672 340° North 488 562 38,000  Level Memphis Center
Wed 04:56:57 PM 34.6306 -89.8169 340° North 488 562 38,000  Level Memphis Center
Wed 04:57:57 PM 34.7603 -89.8769 339° North 483 556 38,000  Level Memphis Center
Wed 04:58:57 PM 34.9044 -89.9494 338° Northwest 493 567 38,000  Level Memphis Center
Wed 04:59:57 PM 35.0278 -89.9969 342° North 487 560 38,000  Level Memphis Center
Wed 05:00:57 PM 35.1508 -90.0522 340° North 480 552 38,000  Level Memphis Center
Wed 05:01:57 PM 35.2761 -90.1078 340° North 473 544 38,000  Level Memphis Center
Wed 05:02:57 PM 35.3994 -90.1633 340° North 467 537 38,000  Level Memphis Center
Wed 05:03:57 PM 35.5225 -90.2219 339° North 474 545 38,000  Level Memphis Center
Wed 05:04:57 PM 35.6478 -90.2803 339° North 475 547 38,000  Level Memphis Center
Wed 05:05:57 PM 35.7500 -90.3186 343° North 460 529 38,000  Level Memphis Center
Wed 05:06:57 PM 35.8833 -90.3467 350° North 460 529 38,000  Level Memphis Center
Wed 05:07:57 PM 36.0189 -90.3750 350° North 472 543 38,000  Level Memphis Center
Wed 05:08:57 PM 36.1461 -90.4058 349° North 472 543 38,000  Level Memphis Center
Wed 05:09:57 PM 36.2817 -90.4317 351° North 472 543 38,000  Level Memphis Center
Wed 05:10:57 PM 36.4108 -90.4600 350° North 472 543 38,000  Level Memphis Center
Wed 05:11:57 PM 36.5400 -90.4886 350° North 472 543 38,000  Level Memphis Center
Wed 05:13:29 PM 36.7500 -90.5311 351° North 475 547 38,000  Level Kansas City Center
Wed 05:14:31 PM 36.8811 -90.5600 350° North 475 547 38,000  Level Kansas City Center
Wed 05:15:33 PM 37.0111 -90.5886 350° North 474 545 38,000  Level Kansas City Center
Wed 05:16:35 PM 37.1444 -90.6172 350° North 480 552 38,000  Level Kansas City Center
Wed 05:17:37 PM 37.2744 -90.6400 352° North 473 544 38,000  Level Kansas City Center
Wed 05:18:39 PM 37.4214 -90.6322 North 477 549 38,000  Level Kansas City Center
Wed 05:19:41 PM 37.5539 -90.6286 North 477 549 38,000 -194 Level Kansas City Center
Wed 05:20:43 PM 37.6869 -90.6233 North 478 550 37,600 -435 Descending Kansas City Center
Wed 05:21:45 PM 37.8219 -90.6194 North 482 555 37,100 -290 Descending Kansas City Center
Wed 05:22:47 PM 37.9572 -90.6153 North 486 559 37,000 -48 Descending Kansas City Center
Wed 05:23:49 PM 38.1197 -90.6114 North 486 559 37,000  Level Kansas City Center
Wed 05:24:51 PM 38.2547 -90.6067 North 485 558 37,000  Level Kansas City Center
Wed 05:25:53 PM 38.3900 -90.6025 North 485 558 37,000  Level Kansas City Center
Wed 05:26:55 PM 38.5317 -90.5992 North 487 560 37,000 -194 Level Kansas City Center
Wed 05:27:57 PM 38.6686 -90.5950 North 489 563 36,600 -629 Descending Kansas City Center
Wed 05:28:59 PM 38.8061 -90.5897 North 492 566 35,700 -816 Descending Kansas City Center
Wed 05:30:02 PM 38.9464 -90.5869 North 493 567 34,900 -816 Descending Kansas City Center
Wed 05:31:04 PM 39.0806 -90.5819 North 484 557 34,000 -726 Descending Kansas City Center
Wed 05:32:06 PM 39.2386 -90.5289 15° North 496 571 33,400 -484 Descending Kansas City Center
Wed 05:33:08 PM 39.3714 -90.4664 20° North 504 580 33,000 -194 Descending Kansas City Center
Wed 05:34:10 PM 39.5017 -90.4044 20° North 501 577 33,000  Level Kansas City Center
Wed 05:35:12 PM 39.6336 -90.3419 20° North 504 580 33,000  Level Kansas City Center
Wed 05:36:14 PM 39.7744 -90.2736 20° North 504 580 33,000  Level Kansas City Center
Wed 05:37:16 PM 39.9042 -90.2100 21° North 501 577 33,000  Level Kansas City Center
Wed 05:38:17 PM 40.0322 -90.1472 21° North 496 571 33,000  Level Chicago Center
Wed 05:39:19 PM 40.1622 -90.0842 20° North 497 572 33,000  Level Chicago Center
Wed 05:40:21 PM 40.2906 -90.0219 20° North 493 567 33,000  Level Chicago Center
Wed 05:41:23 PM 40.4436 -89.9464 21° North 490 564 33,000  Level Chicago Center
Wed 05:42:25 PM 40.5619 -89.8869 21° North 494 568 33,000 -1,226 Level Chicago Center
Wed 05:44:29 PM 40.8361 -89.7475 21° North 479 551 29,200 -1,871 Descending Chicago Center
Wed 05:45:31 PM 40.9608 -89.6864 20° North 480 552 27,200 -1,935 Descending Chicago Center
Wed 05:46:33 PM 41.0894 -89.6231 20° North 487 560 25,200 -1,824 Descending Chicago Center
Wed 05:47:36 PM 41.1894 -89.5117 40° Northeast 472 543 23,400 -1,680 Descending Chicago Center
Wed 05:48:38 PM 41.2519 -89.3619 61° Northeast 459 528 21,700 -2,323 Descending Chicago Center
Wed 05:49:40 PM 41.3192 -89.1922 62° Northeast 439 505 18,600 -2,565 Descending Chicago Center
Wed 05:50:42 PM 41.3758 -89.0506 62° Northeast 439 505 16,400 -2,177 Descending Chicago Center
Wed 05:51:44 PM 41.4322 -88.9108 62° Northeast 434 499 14,100 -1,839 Descending Chicago Center
Wed 05:52:46 PM 41.4833 -88.7825 62° Northeast 397 457 12,600 -1,161 Descending Chicago Center
Wed 05:53:48 PM 41.5264 -88.6725 62° Northeast 338 389 11,700 -677 Descending Chicago Center
Wed 05:54:50 PM 41.5675 -88.5675 62° Northeast 322 371 11,200 -677 Descending Chicago Center
Wed 05:55:52 PM 41.6225 -88.4442 59° Northeast 322 371 10,300 -912 Descending Chicago Center
Wed 05:56:55 PM 41.6764 -88.3525 52° Northeast 315 362 9,300 -816 Descending Chicago Center
Wed 05:57:57 PM 41.7408 -88.2764 41° Northeast 322 371 8,600 -968 Descending Chicago Center
Wed 05:58:59 PM 41.8264 -88.2828 357° North 308 354 7,300 -1,597 Descending Chicago Center
Wed 06:00:01 PM 41.9081 -88.2942 354° North 298 343 5,300 -1,597 Descending Chicago Center
Wed 06:01:03 PM 41.9725 -88.2633 20° North 260 299 4,000 -672 Descending Chicago Center
Wed 06:02:06 PM 41.9694 -88.1919 93° East 216 249 3,900 -288 Descending Chicago Center
Wed 06:03:08 PM 41.9675 -88.1219 92° East 198 228 3,400 -484 Descending Chicago Center

Login

Don't have an account? Register now (free) for customized features, flight alerts, and more!